createdAt,value
2022-10-26T00:01:48.780Z,92.72
2022-10-26T00:04:15.388Z,91.86
2022-10-26T00:06:41.781Z,91.94
2022-10-26T00:09:08.143Z,91.29
2022-10-26T00:11:34.534Z,90.96
2022-10-26T00:14:00.969Z,91.75
2022-10-26T00:16:28.063Z,91.56
2022-10-26T00:18:55.181Z,91.88
2022-10-26T00:21:21.626Z,91.89
2022-10-26T00:23:48.020Z,91.93
2022-10-26T00:26:14.522Z,92.50
2022-10-26T00:28:41.500Z,91.92
2022-10-26T00:31:12.836Z,91.90
2022-10-26T00:33:39.214Z,92.49
2022-10-26T00:36:06.040Z,92.46
2022-10-26T00:38:32.437Z,92.84
2022-10-26T00:40:58.996Z,92.25
2022-10-26T00:43:25.290Z,92.63
2022-10-26T00:45:55.399Z,92.27
2022-10-26T00:48:35.768Z,92.85
2022-10-26T00:51:06.819Z,92.73
2022-10-26T00:53:33.380Z,92.28
2022-10-26T00:56:01.117Z,92.16
2022-10-26T00:58:28.088Z,92.13
2022-10-26T01:00:55.045Z,91.85
2022-10-26T01:03:25.147Z,92.33
2022-10-26T01:05:55.348Z,92.53
2022-10-26T01:08:21.881Z,91.77
2022-10-26T01:10:48.898Z,91.89
2022-10-26T01:13:17.447Z,91.43
2022-10-26T01:16:09.102Z,92.56
2022-10-26T01:18:45.516Z,92.92
2022-10-26T01:21:23.651Z,93.03
2022-10-26T01:24:04.786Z,93.08
2022-10-26T01:27:08.638Z,93.79
2022-10-26T01:29:53.585Z,93.39
2022-10-26T01:32:19.879Z,92.81
2022-10-26T01:35:05.876Z,92.31
2022-10-26T01:37:38.433Z,92.33
2022-10-26T01:40:15.217Z,91.66
2022-10-26T01:42:47.497Z,91.87
2022-10-26T01:45:16.161Z,92.79
2022-10-26T01:47:45.424Z,93.22
2022-10-26T01:50:12.364Z,93.37
2022-10-26T01:52:40.159Z,93.16
2022-10-26T01:55:39.512Z,93.05
2022-10-26T01:58:57.670Z,92.63
2022-10-26T02:01:42.243Z,92.33
2022-10-26T02:04:52.437Z,92.89
2022-10-26T02:07:32.092Z,92.26
2022-10-26T02:09:58.585Z,92.23
2022-10-26T02:12:39.308Z,93.24
2022-10-26T02:15:12.275Z,93.21
2022-10-26T02:17:50.217Z,93.42
2022-10-26T02:20:31.408Z,93.11
2022-10-26T02:23:03.404Z,93.88
2022-10-26T02:25:33.541Z,94.47
2022-10-26T02:28:07.538Z,93.74
2022-10-26T02:30:35.189Z,93.55
2022-10-26T02:33:03.719Z,93.25
2022-10-26T02:35:34.026Z,93.30
2022-10-26T02:38:04.693Z,92.02
2022-10-26T02:40:33.096Z,92.30
2022-10-26T02:43:08.997Z,92.67
2022-10-26T02:45:42.824Z,92.20
2022-10-26T02:48:09.381Z,92.13
2022-10-26T02:50:57.556Z,92.30
2022-10-26T02:53:35.638Z,92.89
2022-10-26T02:56:16.434Z,92.74
2022-10-26T02:58:47.904Z,92.49
2022-10-26T03:01:15.314Z,92.10
2022-10-26T03:03:41.880Z,92.04
2022-10-26T03:06:08.290Z,91.80
2022-10-26T03:08:34.767Z,93.37
2022-10-26T03:11:01.270Z,93.25
2022-10-26T03:13:27.616Z,93.63
2022-10-26T03:15:59.527Z,93.34
2022-10-26T03:18:25.888Z,93.29
2022-10-26T03:20:52.265Z,92.73
2022-10-26T03:23:18.638Z,93.40
2022-10-26T03:25:44.984Z,92.93
2022-10-26T03:28:11.519Z,92.81
2022-10-26T03:30:37.963Z,93.15
2022-10-26T03:33:04.407Z,93.93
2022-10-26T03:35:30.994Z,92.20
2022-10-26T03:37:57.547Z,92.57
2022-10-26T03:40:24.002Z,92.63
2022-10-26T03:42:50.601Z,92.95
2022-10-26T03:45:17.358Z,93.51
2022-10-26T03:47:45.902Z,93.21
2022-10-26T03:50:17.008Z,93.35
2022-10-26T03:52:43.982Z,95.16
2022-10-26T03:55:10.717Z,94.67
2022-10-26T03:57:43.927Z,93.37
2022-10-26T04:00:12.706Z,93.08
2022-10-26T04:02:39.116Z,93.40
2022-10-26T04:05:05.983Z,92.92
2022-10-26T04:07:32.492Z,94.03
2022-10-26T04:09:58.830Z,93.10
2022-10-26T04:12:25.229Z,93.49
2022-10-26T04:14:51.700Z,94.56
2022-10-26T04:17:18.223Z,93.76
2022-10-26T04:19:44.716Z,94.39
2022-10-26T04:22:11.073Z,94.54
2022-10-26T04:24:37.469Z,93.80
2022-10-26T04:27:03.931Z,94.09
2022-10-26T04:29:30.399Z,94.30
2022-10-26T04:31:57.267Z,94.22
2022-10-26T04:34:23.672Z,95.08
2022-10-26T04:36:50.003Z,94.47
2022-10-26T04:39:16.532Z,95.73
2022-10-26T04:41:42.878Z,95.50
2022-10-26T04:44:09.249Z,95.41
2022-10-26T04:46:35.637Z,95.81
2022-10-26T04:49:02.183Z,96.97
2022-10-26T04:51:28.706Z,98.89
2022-10-26T04:53:55.146Z,97.79
2022-10-26T04:56:21.586Z,98.34
2022-10-26T04:58:48.003Z,97.67
2022-10-26T05:01:14.681Z,97.41
2022-10-26T05:03:41.180Z,96.71
2022-10-26T05:06:07.674Z,96.88
2022-10-26T05:08:34.062Z,96.21
2022-10-26T05:11:00.543Z,95.96
2022-10-26T05:15:58.381Z,95.41
2022-10-26T05:18:24.914Z,95.97
2022-10-26T05:20:53.418Z,95.82
2022-10-26T05:23:20.615Z,96.34
2022-10-26T05:25:47.563Z,96.26
2022-10-26T05:28:15.476Z,96.14
2022-10-26T05:30:44.398Z,96.01
2022-10-26T05:33:12.591Z,96.77
2022-10-26T05:35:39.405Z,95.64
2022-10-26T05:38:17.418Z,96.49
2022-10-26T05:40:51.603Z,98.60
2022-10-26T05:43:20.865Z,99.59
2022-10-26T05:45:49.476Z,100.00
2022-10-26T05:48:16.054Z,99.86
2022-10-26T05:50:42.635Z,99.81
2022-10-26T05:53:09.121Z,99.80
2022-10-26T05:55:35.946Z,100.00
2022-10-26T05:58:02.998Z,99.73
2022-10-26T06:00:30.523Z,99.28
2022-10-26T06:03:18.507Z,98.41
2022-10-26T06:05:56.560Z,97.58
2022-10-26T06:08:25.211Z,97.37
2022-10-26T06:10:53.825Z,97.51
2022-10-26T06:13:20.745Z,96.55
2022-10-26T06:16:13.863Z,96.36
2022-10-26T06:18:57.075Z,96.25
2022-10-26T06:21:41.657Z,96.12
2022-10-26T06:24:14.615Z,96.08
2022-10-26T06:26:44.078Z,95.86
2022-10-26T06:29:40.563Z,95.46
2022-10-26T06:32:09.366Z,95.40
2022-10-26T06:34:37.833Z,95.71
2022-10-26T06:37:04.976Z,95.39
2022-10-26T06:39:37.300Z,95.41
2022-10-26T06:42:04.027Z,94.53
2022-10-26T06:44:30.729Z,94.32
2022-10-26T06:47:09.654Z,94.09
2022-10-26T06:50:12.669Z,94.46
2022-10-26T06:52:48.691Z,94.18
2022-10-26T06:55:16.548Z,95.99
2022-10-26T06:57:44.542Z,97.00
2022-10-26T07:00:20.788Z,99.19
2022-10-26T07:02:48.944Z,98.79
2022-10-26T07:05:15.890Z,97.68
2022-10-26T07:07:44.773Z,96.77
2022-10-26T07:10:12.781Z,96.33
2022-10-26T07:12:39.250Z,95.14
2022-10-26T07:15:06.835Z,95.37
2022-10-26T07:17:42.978Z,96.38
2022-10-26T07:20:09.852Z,95.42
2022-10-26T07:22:37.487Z,95.68
2022-10-26T07:25:04.629Z,96.12
2022-10-26T07:27:31.106Z,94.65
2022-10-26T07:29:57.454Z,93.56
2022-10-26T07:32:23.996Z,92.37
2022-10-26T07:34:50.364Z,90.60
2022-10-26T07:37:16.962Z,89.71
2022-10-26T07:39:43.369Z,89.29
2022-10-26T07:42:09.858Z,88.32
2022-10-26T07:44:36.240Z,88.33
2022-10-26T07:47:02.717Z,87.92
2022-10-26T07:49:29.107Z,87.88
2022-10-26T07:51:55.717Z,88.78
2022-10-26T07:54:22.149Z,87.72
2022-10-26T07:56:51.593Z,87.07
2022-10-26T07:59:18.380Z,86.73
2022-10-26T08:01:44.999Z,86.72
2022-10-26T08:04:11.496Z,86.07
2022-10-26T08:06:38.084Z,85.65
2022-10-26T08:09:04.579Z,85.39
2022-10-26T08:11:31.020Z,84.12
2022-10-26T08:13:57.507Z,84.26
2022-10-26T08:16:23.980Z,83.40
2022-10-26T08:18:51.662Z,82.39
2022-10-26T08:21:21.969Z,82.01
2022-10-26T08:23:56.767Z,80.84
2022-10-26T08:26:23.653Z,84.44
2022-10-26T08:28:50.352Z,85.95
2022-10-26T08:31:17.879Z,84.69
2022-10-26T08:33:45.086Z,84.07
2022-10-26T08:36:12.342Z,83.18
2022-10-26T08:38:38.732Z,80.98
2022-10-26T08:41:11.647Z,81.38
2022-10-26T08:43:48.310Z,80.57
2022-10-26T08:46:22.065Z,79.37
2022-10-26T08:48:54.398Z,79.29
2022-10-26T08:51:25.913Z,80.78
2022-10-26T08:54:09.058Z,81.56
2022-10-26T08:56:41.070Z,82.46
2022-10-26T08:59:29.902Z,81.64
2022-10-26T09:01:56.743Z,80.72
2022-10-26T09:04:28.191Z,79.51
2022-10-26T09:07:03.428Z,79.74
2022-10-26T09:10:00.890Z,79.50
2022-10-26T09:12:52.984Z,77.68
2022-10-26T09:15:26.571Z,75.64
2022-10-26T09:18:09.100Z,74.40
2022-10-26T09:20:57.088Z,72.61
2022-10-26T09:23:54.169Z,70.42
2022-10-26T09:26:32.616Z,69.67
2022-10-26T09:29:04.844Z,69.15
2022-10-26T09:31:38.302Z,70.02
2022-10-26T09:34:08.051Z,74.38
2022-10-26T09:36:36.743Z,73.53
2022-10-26T09:39:15.315Z,72.67
2022-10-26T09:41:51.690Z,70.33
2022-10-26T09:44:27.159Z,61.42
2022-10-26T09:47:14.944Z,53.76
2022-10-26T09:49:53.736Z,51.40
2022-10-26T09:52:20.800Z,47.27
2022-10-26T09:54:47.368Z,50.80
2022-10-26T09:57:19.706Z,54.58
2022-10-26T09:59:51.157Z,50.39
2022-10-26T10:02:39.882Z,50.78
2022-10-26T10:08:24.998Z,48.34
2022-10-26T10:10:56.161Z,42.07
2022-10-26T10:13:25.702Z,38.15
2022-10-26T10:16:02.514Z,35.97
2022-10-26T10:18:29.308Z,43.60
2022-10-26T10:20:58.309Z,49.67
2022-10-26T10:23:28.008Z,50.57
2022-10-26T10:26:00.630Z,50.31
2022-10-26T10:28:27.902Z,53.92
2022-10-26T10:30:59.279Z,57.50
2022-10-26T10:33:41.723Z,59.94
2022-10-26T10:36:20.544Z,59.95
2022-10-26T10:38:49.505Z,61.21
2022-10-26T10:41:32.731Z,62.19
2022-10-26T10:44:14.893Z,64.51
2022-10-26T10:46:41.614Z,66.96
2022-10-26T10:49:21.209Z,66.46
2022-10-26T10:51:48.984Z,65.53
2022-10-26T10:54:24.040Z,67.26
2022-10-26T10:56:57.631Z,67.51
2022-10-26T10:59:34.155Z,66.25
2022-10-26T11:02:29.866Z,62.64
2022-10-26T11:05:11.310Z,59.93
2022-10-26T11:07:49.838Z,54.19
2022-10-26T11:10:19.577Z,50.33
2022-10-26T11:12:59.108Z,45.21
2022-10-26T11:15:30.232Z,51.08
2022-10-26T11:18:14.203Z,56.67
2022-10-26T11:20:48.518Z,59.02
2022-10-26T11:23:23.785Z,60.50
2022-10-26T11:25:55.853Z,62.20
2022-10-26T11:28:43.770Z,63.57
2022-10-26T11:31:17.167Z,59.50
2022-10-26T11:33:52.247Z,60.05
2022-10-26T11:36:22.276Z,58.95
2022-10-26T11:39:27.182Z,57.77
2022-10-26T11:42:03.437Z,54.98
2022-10-26T11:44:43.512Z,60.12
2022-10-26T11:47:40.822Z,58.76
2022-10-26T11:50:22.682Z,60.32
2022-10-26T11:52:56.326Z,61.82
2022-10-26T11:55:23.487Z,63.76
2022-10-26T11:57:53.005Z,64.87
2022-10-26T12:00:22.156Z,64.52
2022-10-26T12:03:27.074Z,63.78
2022-10-26T12:05:53.557Z,63.37
2022-10-26T12:08:40.830Z,62.82
2022-10-26T12:11:18.783Z,62.54
2022-10-26T12:14:01.368Z,61.40
2022-10-26T12:16:33.642Z,62.74
2022-10-26T12:19:07.236Z,59.95
2022-10-26T12:21:34.767Z,59.40
2022-10-26T12:24:22.177Z,61.52
2022-10-26T12:26:54.031Z,61.46
2022-10-26T12:29:46.736Z,62.35
2022-10-26T12:32:28.383Z,63.21
2022-10-26T12:34:55.049Z,64.99
2022-10-26T12:37:37.513Z,63.78
2022-10-26T12:40:34.864Z,61.45
2022-10-26T12:43:16.443Z,59.72
2022-10-26T12:45:44.684Z,52.71
2022-10-26T12:48:39.771Z,47.34
2022-10-26T12:51:21.872Z,46.47
2022-10-26T12:54:08.923Z,47.17
2022-10-26T12:56:55.050Z,46.88
2022-10-26T12:59:40.241Z,42.25
2022-10-26T13:02:59.280Z,43.30
2022-10-26T13:05:58.210Z,40.69
2022-10-26T13:08:25.187Z,38.85
2022-10-26T13:11:07.528Z,36.38
2022-10-26T13:13:35.895Z,35.81
2022-10-26T13:16:03.661Z,40.32
2022-10-26T13:18:30.465Z,37.90
2022-10-26T13:21:11.499Z,39.25
2022-10-26T13:23:40.646Z,44.26
2022-10-26T13:26:18.844Z,44.09
2022-10-26T13:28:51.354Z,41.23
2022-10-26T13:31:39.571Z,39.96
2022-10-26T13:34:16.870Z,41.04
2022-10-26T13:37:02.038Z,42.85
2022-10-26T13:39:37.145Z,41.62
2022-10-26T13:42:06.105Z,41.13
2022-10-26T13:44:43.229Z,40.04
2022-10-26T13:47:16.333Z,38.27
2022-10-26T13:49:47.772Z,39.93
2022-10-26T13:52:32.696Z,44.54
2022-10-26T13:55:14.725Z,50.92
2022-10-26T13:57:55.354Z,50.14
2022-10-26T14:00:22.793Z,52.20
2022-10-26T14:02:49.751Z,51.10
2022-10-26T14:05:18.557Z,56.63
2022-10-26T14:07:54.049Z,58.49
2022-10-26T14:10:27.605Z,60.09
2022-10-26T14:12:54.374Z,60.38
2022-10-26T14:15:30.889Z,61.38
2022-10-26T14:17:59.735Z,61.17
2022-10-26T14:20:28.597Z,60.57
2022-10-26T14:22:55.031Z,61.83
2022-10-26T14:25:42.028Z,63.37
2022-10-26T14:28:29.726Z,63.02
2022-10-26T14:31:23.968Z,63.33
2022-10-26T14:33:51.713Z,63.79
2022-10-26T14:36:21.936Z,63.44
2022-10-26T14:38:53.480Z,62.72
2022-10-26T14:41:21.121Z,63.53
2022-10-26T14:43:47.927Z,63.96
2022-10-26T14:46:17.326Z,64.80
2022-10-26T14:48:58.481Z,66.13
2022-10-26T14:51:30.044Z,66.21
2022-10-26T14:53:59.486Z,67.05
2022-10-26T14:56:39.880Z,65.97
2022-10-26T14:59:12.136Z,66.37
2022-10-26T15:02:10.752Z,66.11
2022-10-26T15:04:39.413Z,67.08
2022-10-26T15:07:11.939Z,68.07
2022-10-26T15:09:41.304Z,68.54
2022-10-26T15:12:29.302Z,68.84
2022-10-26T15:15:04.169Z,69.64
2022-10-26T15:17:38.219Z,70.05
2022-10-26T15:20:07.217Z,69.56
2022-10-26T15:22:34.182Z,68.71
2022-10-26T15:25:04.288Z,68.51
2022-10-26T15:27:31.090Z,69.22
2022-10-26T15:30:19.949Z,68.88
2022-10-26T15:32:46.459Z,69.79
2022-10-26T15:35:24.180Z,70.49
2022-10-26T15:37:52.491Z,71.51
2022-10-26T15:40:19.877Z,72.21
2022-10-26T15:42:51.179Z,73.02
2022-10-26T15:45:35.252Z,73.98
2022-10-26T15:48:18.248Z,74.11
2022-10-26T15:50:44.634Z,75.31
2022-10-26T15:53:19.368Z,75.64
2022-10-26T15:55:46.174Z,76.11
2022-10-26T15:58:12.562Z,76.88
2022-10-26T16:00:39.012Z,78.48
2022-10-26T16:03:05.526Z,78.09
2022-10-26T16:08:03.575Z,80.04
2022-10-26T16:10:30.159Z,80.52
2022-10-26T16:12:56.532Z,81.24
2022-10-26T16:15:24.659Z,82.30
2022-10-26T16:17:51.850Z,81.92
2022-10-26T16:20:24.606Z,82.82
2022-10-26T16:22:52.681Z,83.90
2022-10-26T16:25:23.309Z,83.52
2022-10-26T16:27:50.721Z,83.85
2022-10-26T16:30:18.818Z,84.16
2022-10-26T16:32:45.514Z,84.35
2022-10-26T16:35:12.103Z,85.67
2022-10-26T16:37:38.686Z,85.64
2022-10-26T16:40:06.669Z,85.29
2022-10-26T16:42:33.348Z,86.13
2022-10-26T16:45:02.559Z,86.76
2022-10-26T16:47:29.574Z,86.83
2022-10-26T16:49:55.981Z,86.37
2022-10-26T16:52:22.414Z,87.12
2022-10-26T16:54:48.875Z,90.07
2022-10-26T16:57:15.570Z,89.53
2022-10-26T16:59:42.089Z,89.30
2022-10-26T17:02:10.264Z,89.60
2022-10-26T17:04:36.769Z,89.30
2022-10-26T17:07:03.221Z,89.05
2022-10-26T17:09:29.658Z,90.34
2022-10-26T17:11:59.545Z,89.66
2022-10-26T17:14:28.129Z,88.80
2022-10-26T17:16:54.511Z,89.22
2022-10-26T17:19:20.877Z,89.60
2022-10-26T17:21:47.411Z,89.85
2022-10-26T17:24:16.555Z,90.83
2022-10-26T17:26:42.961Z,90.07
2022-10-26T17:31:41.209Z,90.56
2022-10-26T17:34:07.689Z,90.65
2022-10-26T17:36:34.135Z,90.41
2022-10-26T17:39:00.910Z,90.61
2022-10-26T17:41:28.021Z,92.04
2022-10-26T17:43:54.533Z,92.21
2022-10-26T17:46:24.188Z,92.00
2022-10-26T17:48:58.299Z,91.19
2022-10-26T17:51:25.356Z,91.41
2022-10-26T17:53:52.242Z,90.98
2022-10-26T17:56:27.108Z,91.65
2022-10-26T17:58:59.249Z,90.83
2022-10-26T18:01:26.984Z,91.08
2022-10-26T18:03:53.938Z,91.00
2022-10-26T18:06:21.379Z,92.04
2022-10-26T18:08:48.117Z,92.39
2022-10-26T18:11:25.373Z,92.59
2022-10-26T18:13:56.938Z,91.72
2022-10-26T18:16:25.373Z,92.16
2022-10-26T18:19:00.114Z,92.70
2022-10-26T18:21:28.320Z,95.27
2022-10-26T18:23:54.931Z,95.09
2022-10-26T18:26:27.087Z,96.28
2022-10-26T18:28:53.938Z,96.03
2022-10-26T18:31:22.558Z,95.24
2022-10-26T18:33:49.197Z,94.70
2022-10-26T18:36:18.868Z,93.82
2022-10-26T18:38:48.401Z,96.83
2022-10-26T18:41:16.718Z,94.77
2022-10-26T18:43:45.865Z,94.29
2022-10-26T18:46:21.522Z,92.92
2022-10-26T18:48:48.107Z,93.24
2022-10-26T18:51:17.396Z,93.55
2022-10-26T18:53:45.224Z,92.92
2022-10-26T18:56:15.086Z,92.80
2022-10-26T18:58:44.277Z,92.44
2022-10-26T19:01:13.313Z,92.71
2022-10-26T19:03:40.544Z,93.20
2022-10-26T19:06:19.354Z,93.63
2022-10-26T19:08:46.563Z,95.21
2022-10-26T19:11:18.569Z,97.11
2022-10-26T19:13:45.600Z,96.89
2022-10-26T19:16:26.832Z,97.15
2022-10-26T19:19:00.250Z,97.15
2022-10-26T19:21:28.677Z,96.30
2022-10-26T19:23:57.996Z,94.51
2022-10-26T19:26:33.192Z,93.12
2022-10-26T19:29:03.923Z,92.45
2022-10-26T19:31:32.353Z,92.51
2022-10-26T19:33:59.963Z,94.64
2022-10-26T19:36:29.706Z,93.55
2022-10-26T19:38:56.487Z,94.35
2022-10-26T19:41:23.959Z,94.06
2022-10-26T19:43:50.922Z,93.62
2022-10-26T19:46:21.057Z,93.12
2022-10-26T19:48:53.328Z,92.83
2022-10-26T19:51:20.151Z,93.05
2022-10-26T19:53:46.737Z,92.86
2022-10-26T19:56:14.253Z,93.83
2022-10-26T19:58:42.202Z,95.34
2022-10-26T20:01:10.499Z,95.75
2022-10-26T20:03:37.616Z,95.53
2022-10-26T20:06:12.700Z,96.70
2022-10-26T20:08:43.616Z,96.12
2022-10-26T20:11:13.276Z,94.99
2022-10-26T20:13:42.548Z,93.56
2022-10-26T20:16:09.847Z,93.29
2022-10-26T20:18:36.315Z,95.49
2022-10-26T20:21:10.151Z,96.42
2022-10-26T20:23:36.895Z,97.77
2022-10-26T20:26:03.713Z,98.08
2022-10-26T20:28:30.858Z,97.05
2022-10-26T20:30:59.345Z,96.15
2022-10-26T20:33:26.414Z,93.87
2022-10-26T20:35:59.297Z,93.86
2022-10-26T20:38:26.745Z,93.33
2022-10-26T20:40:58.637Z,93.77
2022-10-26T20:43:28.477Z,93.24
2022-10-26T20:45:56.138Z,93.96
2022-10-26T20:48:22.778Z,93.90
2022-10-26T20:51:03.548Z,93.75
2022-10-26T20:53:37.752Z,92.90
2022-10-26T20:56:07.240Z,93.50
2022-10-26T20:59:01.189Z,94.48
2022-10-26T21:01:31.685Z,94.07
2022-10-26T21:04:02.974Z,94.70
2022-10-26T21:06:29.891Z,94.84
2022-10-26T21:08:57.049Z,93.99
2022-10-26T21:11:25.308Z,93.66
2022-10-26T21:13:53.375Z,93.06
2022-10-26T21:16:19.768Z,93.05
2022-10-26T21:18:46.320Z,93.22
2022-10-26T21:21:12.804Z,93.42
2022-10-26T21:23:41.034Z,94.84
2022-10-26T21:26:08.572Z,97.29
2022-10-26T21:28:41.418Z,97.13
2022-10-26T21:31:10.456Z,96.45
2022-10-26T21:33:37.377Z,95.87
2022-10-26T21:36:05.948Z,95.62
2022-10-26T21:38:33.265Z,95.37
2022-10-26T21:41:09.853Z,94.53
2022-10-26T21:43:37.988Z,94.48
2022-10-26T21:46:05.312Z,93.43
2022-10-26T21:48:34.109Z,93.53
2022-10-26T21:51:06.049Z,96.02
2022-10-26T21:53:33.018Z,95.98
2022-10-26T21:56:12.051Z,95.78
2022-10-26T21:58:39.083Z,96.13
2022-10-26T22:01:19.040Z,95.34
2022-10-26T22:03:46.315Z,94.35
2022-10-26T22:06:14.982Z,94.32
2022-10-26T22:08:41.743Z,94.04
2022-10-26T22:11:15.608Z,95.47
2022-10-26T22:13:43.221Z,94.43
2022-10-26T22:16:21.128Z,93.52
2022-10-26T22:18:48.479Z,94.06
2022-10-26T22:21:17.018Z,93.89
2022-10-26T22:23:44.387Z,93.57
2022-10-26T22:26:20.370Z,93.09
2022-10-26T22:28:49.975Z,93.83
2022-10-26T22:31:25.508Z,93.87
2022-10-26T22:34:06.513Z,93.33
2022-10-26T22:36:34.580Z,92.73
2022-10-26T22:39:00.992Z,93.41
2022-10-26T22:41:27.450Z,95.16
2022-10-26T22:43:53.963Z,97.82
2022-10-26T22:46:23.471Z,97.75
2022-10-26T22:48:54.766Z,97.81
2022-10-26T22:51:22.961Z,97.82
2022-10-26T22:53:54.316Z,97.49
2022-10-26T22:56:23.136Z,96.48
2022-10-26T22:58:51.869Z,96.49
2022-10-26T23:01:23.896Z,96.21
2022-10-26T23:03:51.727Z,95.14
2022-10-26T23:06:19.350Z,94.67
2022-10-26T23:08:45.891Z,94.22
2022-10-26T23:11:17.314Z,94.16
2022-10-26T23:13:44.155Z,93.89
2022-10-26T23:16:13.828Z,93.92
2022-10-26T23:18:40.536Z,94.10
2022-10-26T23:21:09.213Z,94.30
2022-10-26T23:23:36.210Z,94.41
2022-10-26T23:26:05.273Z,94.39
2022-10-26T23:28:32.551Z,94.26
2022-10-26T23:30:58.993Z,94.42
2022-10-26T23:33:25.425Z,95.82
2022-10-26T23:35:52.141Z,95.95
2022-10-26T23:38:18.825Z,95.22
2022-10-26T23:40:55.955Z,94.76
2022-10-26T23:43:23.058Z,96.71
2022-10-26T23:45:49.976Z,96.32
2022-10-26T23:48:17.445Z,95.18
2022-10-26T23:50:45.185Z,94.87
2022-10-26T23:53:13.277Z,95.80
2022-10-26T23:55:39.795Z,95.30
2022-10-26T23:58:06.333Z,95.73
